Weather at Denver International Airport

Public forecast

Using degrees Fahrenheit for public forecast. Weather courtesy of forecast.io.

Current aviation weather report (METAR) for Denver International Airport

Retrieved 2021/01/23 07:53 UTC (1 hour ago):

KDEN 230753Z 03003KT 10SM FEW220 M02/M08 A2974 RMK AO2 SLP069 T10221078

Aviation forecast (TAF) for Denver International Airport

Retrieved 2021/01/23 06:36 UTC (3 hours ago):

TAF KDEN 230533Z 2306/2412 23006KT P6SM BKN220 FM231300 VRB06KT P6SM SCT220 FM232000 32012G20KT P6SM SCT220 FM232200 03014G22KT P6SM BKN120 FM240200 04010KT P6SM BKN025 FM240600 08007KT P6SM BKN015